Time;durP1;ratioP1;P1;durP2;ratioP2;P2;SDS_P1;SDS_P2;PMS_P1;PMS_P2;Temp;Humidity;BMP_temperature;BMP_pressure;BME280_temperature;BME280_humidity;BME280_pressure;Samples;Min_cycle;Max_cycle;Signal;HPM_P1;HPM_P2
2022/08/06 00:01:05;;;;;;;1999.90;999.90;;;;;;;16.77;68.41;99939.47;10044676;23;20030;-77
2022/08/06 00:05:11;;;;;;;1999.90;999.90;;;;;;;16.74;69.05;99950.03;10074078;23;20049;-77
2022/08/06 00:09:30;;;;;;;1999.90;999.90;;;;;;;16.69;68.82;99951.00;10073872;23;20313;-77
2022/08/06 00:13:51;;;;;;;1999.90;999.90;;;;;;;16.50;68.98;99953.09;10071681;23;20495;-77
2022/08/06 00:17:53;;;;;;;1999.90;999.90;;;;;;;16.33;69.52;99959.53;10043783;23;20101;-77
2022/08/06 00:21:55;;;;;;;1999.90;999.90;;;;;;;16.18;70.29;99964.22;10048930;23;20027;-77
2022/08/06 00:25:57;;;;;;;1999.90;999.90;;;;;;;16.02;71.04;99967.09;10025124;23;20543;-77
2022/08/06 00:29:59;;;;;;;1999.90;999.90;;;;;;;16.05;71.07;99971.41;10073802;23;20014;-77
2022/08/06 00:34:08;;;;;;;1999.90;999.90;;;;;;;16.11;70.44;99971.28;10048922;23;20088;-77
2022/08/06 00:38:10;;;;;;;1999.90;999.90;;;;;;;16.14;70.36;99973.00;10073705;23;20064;-77
2022/08/06 00:42:11;;;;;;;1999.90;999.90;;;;;;;16.07;70.59;99980.09;10074283;23;20069;-77
2022/08/06 00:46:16;;;;;;;1999.90;999.90;;;;;;;16.04;70.65;99980.16;10044364;23;20101;-77
2022/08/06 00:50:19;;;;;;;1999.90;999.90;;;;;;;15.92;70.77;99978.59;10023756;23;20017;-77
2022/08/06 00:54:22;;;;;;;1999.90;999.90;;;;;;;15.89;70.40;99981.28;10047473;23;20560;-77
2022/08/06 00:58:36;;;;;;;1999.90;999.90;;;;;;;15.85;70.83;99983.97;10048241;23;20030;-77
2022/08/06 01:02:41;;;;;;;1999.90;999.90;;;;;;;15.75;71.45;99990.25;10067089;23;20065;-77
2022/08/06 01:06:47;;;;;;;1999.90;999.90;;;;;;;15.59;71.69;99995.72;10073327;23;20781;-76
2022/08/06 01:10:58;;;;;;;1999.90;999.90;;;;;;;15.51;72.57;100010.66;10047025;23;20118;-76
2022/08/06 01:15:00;;;;;;;1999.90;999.90;;;;;;;15.52;72.86;99996.66;10048669;23;20065;-76
2022/08/06 01:19:19;;;;;;;1999.90;999.90;;;;;;;15.51;73.27;99994.09;10047183;23;20080;-76
2022/08/06 01:23:52;;;;;;;1999.90;999.90;;;;;;;15.41;73.37;100001.19;10073809;23;20600;-76
2022/08/06 01:28:16;;;;;;;1999.90;999.90;;;;;;;15.40;73.75;100004.69;10048010;23;20631;-76
2022/08/06 01:32:32;;;;;;;1999.90;999.90;;;;;;;15.47;73.46;100008.09;10066869;23;20689;-76
2022/08/06 01:36:42;;;;;;;1999.90;999.90;;;;;;;15.50;72.49;100005.44;10046890;23;20031;-76
2022/08/06 01:40:51;;;;;;;1999.90;999.90;;;;;;;15.52;72.92;100012.38;10071964;23;20426;-76
2022/08/06 01:44:56;;;;;;;1999.90;999.90;;;;;;;15.60;72.15;100007.03;10073979;23;20019;-76
2022/08/06 01:49:00;;;;;;;1999.90;999.90;;;;;;;15.54;72.01;100013.22;10042456;23;20390;-76
2022/08/06 01:53:27;;;;;;;1999.90;999.90;;;;;;;15.53;72.33;100015.84;10046992;23;20030;-76
2022/08/06 01:57:55;;;;;;;1999.90;999.90;;;;;;;15.40;72.24;100016.03;10047557;23;20101;-76
2022/08/06 02:02:22;;;;;;;1999.90;999.90;;;;;;;15.37;72.56;100016.06;10074649;23;20101;-76
2022/08/06 02:06:40;;;;;;;1999.90;999.90;;;;;;;15.43;73.18;100018.59;10056731;23;20615;-76
2022/08/06 02:10:43;;;;;;;1999.90;999.90;;;;;;;15.42;72.96;100023.84;10082657;23;20029;-76
2022/08/06 02:15:04;;;;;;;1999.90;999.90;;;;;;;15.36;73.65;100037.03;10081704;23;20050;-76
2022/08/06 02:19:09;;;;;;;1999.90;999.90;;;;;;;15.33;73.88;100034.47;10081361;23;20026;-76
2022/08/06 02:23:21;;;;;;;1999.90;999.90;;;;;;;15.32;74.24;100038.81;10056559;23;20026;-76
2022/08/06 02:27:25;;;;;;;1999.90;999.90;;;;;;;15.32;74.38;100032.72;10056991;23;20399;-76
2022/08/06 02:31:47;;;;;;;;;;;;;;;15.37;74.10;100033.53;10051663;23;20030;-76
2022/08/06 02:36:04;;;;;;;1999.90;999.90;;;;;;;15.32;74.58;100030.13;10032932;23;19932;-76
2022/08/06 02:40:34;;;;;;;1999.90;999.90;;;;;;;15.28;75.04;100034.53;10055333;23;20027;-76
2022/08/06 02:45:00;;;;;;;1999.90;999.90;;;;;;;15.20;75.20;100031.13;10095990;23;20022;-76
2022/08/06 02:49:12;;;;;;;1999.90;999.90;;;;;;;15.15;75.54;100039.94;10071427;23;20422;-76
2022/08/06 02:53:38;;;;;;;1999.90;999.90;;;;;;;15.10;75.66;100038.25;10034125;23;20015;-76
2022/08/06 02:58:08;;;;;;;1999.90;999.90;;;;;;;15.05;75.44;100039.16;10080609;23;20101;-76
2022/08/06 03:02:15;;;;;;;1999.90;999.90;;;;;;;15.00;75.65;100039.22;10083473;23;20042;-76
2022/08/06 03:06:18;;;;;;;1999.90;999.90;;;;;;;14.93;76.04;100037.59;10051081;23;20065;-76
2022/08/06 03:10:24;;;;;;;1999.90;999.90;;;;;;;14.83;75.72;100041.16;10075668;23;20069;-76
2022/08/06 03:14:32;;;;;;;1999.90;999.90;;;;;;;14.70;76.31;100040.44;10050933;23;20081;-76
2022/08/06 03:18:55;;;;;;;1999.90;999.90;;;;;;;14.64;76.38;100042.25;10049743;23;20105;-76
2022/08/06 03:23:18;;;;;;;1999.90;999.90;;;;;;;14.63;76.52;100043.13;10049431;23;20026;-76
2022/08/06 03:27:22;;;;;;;1999.90;999.90;;;;;;;14.61;76.42;100045.78;10076033;23;20209;-76
2022/08/06 03:31:23;;;;;;;;;;;;;;;14.49;77.07;100057.19;10046341;23;20791;-76
2022/08/06 03:35:35;;;;;;;1999.90;999.90;;;;;;;14.54;76.59;100045.84;10074836;23;19963;-77
2022/08/06 03:39:53;;;;;;;1999.90;999.90;;;;;;;14.54;76.51;100054.53;10075927;23;20117;-76
2022/08/06 03:43:55;;;;;;;1999.90;999.90;;;;;;;14.48;76.21;100054.59;10050043;23;20122;-76
2022/08/06 03:48:07;;;;;;;1999.90;999.90;;;;;;;14.42;76.62;100057.25;10051971;23;20097;-76
2022/08/06 03:52:16;;;;;;;1999.90;999.90;;;;;;;14.41;76.16;100058.13;10050834;23;20018;-76
2022/08/06 03:56:23;;;;;;;1999.90;999.90;;;;;;;14.37;75.97;100061.66;10049832;23;20033;-76
2022/08/06 04:00:36;;;;;;;1999.90;999.90;;;;;;;14.28;76.58;100059.13;10047685;23;20034;-76
2022/08/06 04:04:39;;;;;;;1999.90;999.90;;;;;;;14.16;76.23;100067.91;10050449;23;20442;-76
2022/08/06 04:08:41;;;;;;;;;;;;;;;14.11;75.91;100070.56;10026572;23;20079;-76
2022/08/06 04:12:44;;;;;;;;;;;;;;;13.90;76.88;100070.72;10075175;23;19984;-76
2022/08/06 04:17:06;;;;;;;1999.90;999.90;;;;;;;13.78;77.26;100083.84;10069646;23;20283;-76
2022/08/06 04:21:15;;;;;;;1999.90;999.90;;;;;;;13.81;77.10;100094.28;10049070;23;20053;-76
2022/08/06 04:25:52;;;;;;;1999.90;999.90;;;;;;;13.74;77.28;100089.97;10048035;23;20026;-76
2022/08/06 04:29:58;;;;;;;1999.90;999.90;;;;;;;13.85;76.59;100096.00;10025810;23;20121;-76
2022/08/06 04:34:04;;;;;;;1999.90;999.90;;;;;;;13.82;76.81;100102.13;10048616;23;20023;-76
2022/08/06 04:38:14;;;;;;;1999.90;999.90;;;;;;;13.82;76.37;100107.34;10074525;23;20026;-76
2022/08/06 04:42:17;;;;;;;1999.90;999.90;;;;;;;13.72;75.98;100115.22;10089607;23;20097;-76
2022/08/06 04:46:20;;;;;;;1999.90;999.90;;;;;;;13.70;76.54;100107.41;10069548;23;20026;-76
2022/08/06 04:50:22;;;;;;;1999.90;999.90;;;;;;;13.75;76.12;100108.25;10049809;23;20026;-76
2022/08/06 04:54:24;;;;;;;1999.90;999.90;;;;;;;13.87;75.51;100102.09;10048170;23;20089;-76
2022/08/06 04:58:30;;;;;;;1999.90;999.90;;;;;;;13.98;74.91;100105.47;10072594;23;20022;-76
2022/08/06 05:02:33;;;;;;;1999.90;999.90;;;;;;;14.14;74.43;100106.25;10064866;23;20029;-76
2022/08/06 05:06:48;;;;;;;1999.90;999.90;;;;;;;14.24;73.57;100105.31;10073643;23;20414;-76
2022/08/06 05:10:56;;;;;;;1999.90;999.90;;;;;;;14.42;73.28;100104.28;10074322;23;20477;-76
2022/08/06 05:15:01;;;;;;;1999.90;999.90;;;;;;;14.63;72.23;100103.25;10049444;23;20045;-76
2022/08/06 05:19:09;;;;;;;1999.90;999.90;;;;;;;14.81;71.11;100116.16;10071208;23;20030;-76
2022/08/06 05:23:42;;;;;;;1999.90;999.90;;;;;;;15.01;69.64;100116.81;10072292;23;20053;-76
2022/08/06 05:27:47;;;;;;;1999.90;999.90;;;;;;;15.15;68.67;100124.50;10025252;23;20117;-76
2022/08/06 05:32:09;;;;;;;1999.90;999.90;;;;;;;15.37;68.73;100123.38;10042706;23;20100;-76
2022/08/06 05:36:11;;;;;;;;;;;;;;;15.50;66.67;100129.31;10073838;23;20026;-76
2022/08/06 05:40:20;;;;;;;1999.90;999.90;;;;;;;15.72;65.26;100132.56;10026429;23;20284;-77
2022/08/06 05:44:35;;;;;;;1999.90;999.90;;;;;;;16.74;62.80;100138.88;10090164;23;20806;-77
2022/08/06 05:48:45;;;;;;;1999.90;999.90;;;;;;;17.47;59.82;100139.22;10047586;23;20030;-76
2022/08/06 05:53:08;;;;;;;1999.90;999.90;;;;;;;17.88;58.25;100137.50;10065051;23;20473;-76
2022/08/06 05:57:17;;;;;;;1999.90;999.90;;;;;;;17.93;57.10;100136.50;10048907;23;20022;-76
2022/08/06 06:01:36;;;;;;;1999.90;999.90;;;;;;;18.14;56.71;100140.44;10069291;23;20026;-76
2022/08/06 06:05:42;;;;;;;1999.90;999.90;;;;;;;18.52;56.05;100136.88;10075018;23;20036;-76
2022/08/06 06:10:05;;;;;;;1999.90;999.90;;;;;;;18.88;54.35;100132.47;10048883;23;20085;-76
2022/08/06 06:14:35;;;;;;;1999.90;999.90;;;;;;;19.52;53.97;100146.47;10073971;23;20023;-76
2022/08/06 06:18:53;;;;;;;1999.90;999.90;;;;;;;19.95;50.59;100144.38;10044414;23;20478;-76
2022/08/06 06:23:02;;;;;;;1999.90;999.90;;;;;;;20.44;49.36;100147.19;10073026;23;20030;-75
2022/08/06 06:27:19;;;;;;;1999.90;999.90;;;;;;;20.79;47.27;100150.44;10073657;23;20045;-76
2022/08/06 06:31:46;;;;;;;1999.90;999.90;;;;;;;21.09;46.54;100154.66;10068663;23;20505;-76
2022/08/06 06:36:22;;;;;;;1999.90;999.90;;;;;;;21.34;45.72;100159.09;10052114;23;20381;-76
2022/08/06 06:40:46;;;;;;;1999.90;999.90;;;;;;;21.56;44.63;100159.19;10026767;23;20022;-76
2022/08/06 06:45:21;;;;;;;1999.90;999.90;;;;;;;21.83;43.86;100149.34;10069596;23;20018;-76
2022/08/06 06:49:47;;;;;;;1999.90;999.90;;;;;;;22.02;43.24;100155.66;10052170;23;20034;-76
2022/08/06 06:54:05;;;;;;;1999.90;999.90;;;;;;;22.36;43.05;100162.28;10051915;23;20088;-75
2022/08/06 06:58:45;;;;;;;1999.90;999.90;;;;;;;22.60;42.80;100164.78;10051264;23;20056;-76
2022/08/06 07:02:51;;;;;;;1999.90;999.90;;;;;;;22.73;41.74;100164.28;10070527;23;20034;-76
2022/08/06 07:06:56;;;;;;;1999.90;999.90;;;;;;;22.78;40.71;100162.28;10051335;23;20303;-76
2022/08/06 07:11:01;;;;;;;1999.90;999.90;;;;;;;22.85;41.22;100164.66;10050469;23;20023;-76
2022/08/06 07:15:05;;;;;;;1999.90;999.90;;;;;;;22.89;40.94;100158.31;10047214;23;20026;-76
2022/08/06 07:19:20;;;;;;;1999.90;999.90;;;;;;;23.19;40.86;100165.88;10050049;23;20386;-76
2022/08/06 07:23:22;;;;;;;1999.90;999.90;;;;;;;23.40;40.23;100167.56;10075499;23;20030;-77
2022/08/06 07:27:48;;;;;;;1999.90;999.90;;;;;;;23.47;39.18;100163.69;10072780;23;20117;-76
2022/08/06 07:31:56;;;;;;;1999.90;999.90;;;;;;;23.64;39.08;100172.72;10070016;23;20101;-77
2022/08/06 07:35:59;;;;;;;1999.90;999.90;;;;;;;23.74;38.59;100166.06;10047482;23;20033;-75
2022/08/06 07:40:05;;;;;;;1999.90;999.90;;;;;;;23.91;38.78;100166.13;10073963;23;20042;-77
2022/08/06 07:44:11;;;;;;;1999.90;999.90;;;;;;;24.16;38.21;100168.47;10074592;23;20050;-77
2022/08/06 07:48:16;;;;;;;1999.90;999.90;;;;;;;24.25;37.46;100164.53;10069093;23;20087;-77
2022/08/06 07:52:18;;;;;;;1999.90;999.90;;;;;;;24.37;37.21;100159.50;10075774;23;20367;-77
2022/08/06 07:56:28;;;;;;;1999.90;999.90;;;;;;;24.49;36.30;100160.72;10051409;23;20029;-77
2022/08/06 08:00:31;;;;;;;1999.90;999.90;;;;;;;24.50;36.84;100154.47;10070026;23;20022;-77
2022/08/06 08:09:15;;;;;;;1999.90;999.90;;;;;;;24.81;35.84;100159.09;10051296;23;20029;-74
2022/08/06 08:13:33;;;;;;;1999.90;999.90;;;;;;;24.93;35.29;100158.47;10048496;23;20022;-73
2022/08/06 08:17:42;;;;;;;1999.90;999.90;;;;;;;25.24;35.74;100162.22;10069186;23;20092;-75
2022/08/06 08:21:46;;;;;;;1999.90;999.90;;;;;;;25.35;35.12;100156.34;10074415;23;20026;-75
2022/08/06 08:25:47;;;;;;;1999.90;999.90;;;;;;;25.53;34.53;100152.72;10073513;23;20026;-75
2022/08/06 08:29:49;;;;;;;1999.90;999.90;;;;;;;25.52;33.13;100157.19;10073900;23;20109;-76
2022/08/06 08:33:55;;;;;;;1999.90;999.90;;;;;;;25.41;33.59;100156.88;10044482;23;20026;-76
2022/08/06 08:37:57;;;;;;;1999.90;999.90;;;;;;;25.53;33.33;100158.91;10075636;23;20026;-76
2022/08/06 08:42:13;;;;;;;1999.90;999.90;;;;;;;25.28;32.60;100155.81;10074249;23;20022;-76
2022/08/06 08:46:37;;;;;;;1999.90;999.90;;;;;;;24.77;33.43;100148.69;10069052;23;20135;-76
2022/08/06 08:50:53;;;;;;;1999.90;999.90;;;;;;;24.98;32.12;100145.81;10073048;23;20018;-76
2022/08/06 08:54:58;;;;;;;1999.90;999.90;;;;;;;25.07;32.12;100148.97;10048832;23;20046;-76
2022/08/06 08:59:04;;;;;;;1999.90;999.90;;;;;;;24.94;31.29;100154.00;10074455;23;20033;-77
2022/08/06 09:03:26;;;;;;;1999.90;999.90;;;;;;;24.95;31.66;100155.72;10046996;23;20046;-76
2022/08/06 09:07:28;;;;;;;1999.90;999.90;;;;;;;24.92;31.84;100150.56;10073555;23;20069;-75
2022/08/06 09:11:37;;;;;;;1999.90;999.90;;;;;;;25.17;31.70;100152.88;10047741;23;20065;-75
2022/08/06 09:16:00;;;;;;;1999.90;999.90;;;;;;;25.43;31.48;100160.31;10045966;23;20030;-75
2022/08/06 09:20:04;;;;;;;1999.90;999.90;;;;;;;25.55;30.86;100159.66;10047335;23;20097;-75
2022/08/06 09:24:08;;;;;;;1999.90;999.90;;;;;;;25.68;30.74;100162.56;10072525;23;20449;-74
2022/08/06 09:28:27;;;;;;;1999.90;999.90;;;;;;;25.68;29.69;100161.72;10071626;23;20525;-75
2022/08/06 09:32:43;;;;;;;1999.90;999.90;;;;;;;25.81;30.18;100152.09;10067440;23;20077;-75
2022/08/06 09:36:58;;;;;;;1999.90;999.90;;;;;;;25.97;30.25;100147.63;10071734;23;20022;-75
2022/08/06 09:41:10;;;;;;;1999.90;999.90;;;;;;;25.96;29.36;100145.91;10046465;23;20025;-75
2022/08/06 09:45:18;;;;;;;1999.90;999.90;;;;;;;26.08;29.43;100150.56;10069754;23;20033;-75
2022/08/06 09:49:44;;;;;;;1999.90;999.90;;;;;;;26.22;29.73;100136.47;10046877;23;20034;-75
2022/08/06 09:54:03;;;;;;;1999.90;999.90;;;;;;;26.28;29.16;100143.25;10072200;23;20026;-75
2022/08/06 09:58:37;;;;;;;1999.90;999.90;;;;;;;26.18;28.98;100135.78;10047249;23;20022;-76
2022/08/06 10:02:38;;;;;;;1999.90;999.90;;;;;;;26.18;29.67;100148.22;10042759;23;20142;-75
2022/08/06 10:06:53;;;;;;;1999.90;999.90;;;;;;;26.32;29.96;100142.13;10073050;23;20458;-75
2022/08/06 10:10:58;;;;;;;1999.90;999.90;;;;;;;26.30;29.20;100138.69;10048683;23;20025;-75
2022/08/06 10:15:07;;;;;;;1999.90;999.90;;;;;;;26.31;29.39;100138.59;10045649;23;20035;-75
2022/08/06 10:19:17;;;;;;;1999.90;999.90;;;;;;;26.32;29.88;100135.00;10072500;23;20430;-75
2022/08/06 10:23:20;;;;;;;1999.90;999.90;;;;;;;26.19;29.63;100131.31;10092315;23;20083;-74
2022/08/06 10:27:25;;;;;;;1999.90;999.90;;;;;;;26.31;29.46;100143.94;10052006;23;20025;-75
2022/08/06 10:31:37;;;;;;;1999.90;999.90;;;;;;;26.40;29.54;100129.28;10069844;23;20023;-75
2022/08/06 10:35:43;;;;;;;1999.90;999.90;;;;;;;26.29;29.06;100132.50;10076034;23;20037;-75
2022/08/06 10:39:54;;;;;;;1999.90;999.90;;;;;;;26.24;29.07;100131.94;10076398;23;20018;-75
2022/08/06 10:44:12;;;;;;;1999.90;999.90;;;;;;;26.19;28.80;100129.50;10076822;23;20019;-74
2022/08/06 10:48:17;;;;;;;1999.90;999.90;;;;;;;26.33;29.06;100135.84;10073279;23;20025;-74
2022/08/06 10:52:40;;;;;;;1999.90;999.90;;;;;;;26.48;28.56;100138.53;10051972;23;20027;-75
2022/08/06 10:56:46;;;;;;;1999.90;999.90;;;;;;;26.65;28.88;100124.22;10075584;23;20018;-75
2022/08/06 11:00:48;;;;;;;1999.90;999.90;;;;;;;26.72;27.80;100116.69;10069344;23;20033;-74
2022/08/06 11:05:05;;;;;;;1999.90;999.90;;;;;;;26.87;28.34;100115.78;10052045;23;20723;-75
2022/08/06 11:10:08;;;;;;;1999.90;999.90;;;;;;;26.90;27.98;100120.94;10074449;23;20030;-75
2022/08/06 11:14:11;;;;;;;1999.90;999.90;;;;;;;26.93;28.03;100106.56;10049280;23;20014;-75
2022/08/06 11:18:19;;;;;;;1999.90;999.90;;;;;;;26.66;27.33;100099.28;10069193;23;20375;-74
2022/08/06 11:22:32;;;;;;;1999.90;999.90;;;;;;;26.85;27.63;100099.03;10049069;23;20053;-74
2022/08/06 11:26:37;;;;;;;1999.90;999.90;;;;;;;26.72;26.98;100095.38;10049382;23;20037;-74
2022/08/06 11:30:50;;;;;;;1999.90;999.90;;;;;;;26.79;27.68;100096.75;10071255;23;20117;-74
2022/08/06 11:34:52;;;;;;;1999.90;999.90;;;;;;;26.89;28.10;100086.38;10048209;23;20030;-75
2022/08/06 11:38:53;;;;;;;1999.90;999.90;;;;;;;27.04;28.14;100089.00;10026444;23;20400;-74
2022/08/06 11:43:00;;;;;;;1999.90;999.90;;;;;;;26.83;26.94;100078.78;10075253;23;20078;-75
2022/08/06 11:47:20;;;;;;;1999.90;999.90;;;;;;;26.82;27.97;100069.91;10074552;23;20109;-75
2022/08/06 11:51:50;;;;;;;1999.90;999.90;;;;;;;26.97;27.96;100069.00;10073092;23;20438;-75
2022/08/06 11:56:07;;;;;;;1999.90;999.90;;;;;;;27.34;27.41;100070.25;10073338;23;20026;-75
2022/08/06 12:00:14;;;;;;;1999.90;999.90;;;;;;;27.59;26.82;100069.53;10071706;23;20026;-75
2022/08/06 12:04:34;;;;;;;1999.90;999.90;;;;;;;27.74;26.20;100072.22;10071703;23;20023;-75
2022/08/06 12:08:36;;;;;;;1999.90;999.90;;;;;;;27.73;26.27;100071.38;10075297;23;20022;-75
2022/08/06 12:12:50;;;;;;;1999.90;999.90;;;;;;;27.65;26.50;100069.22;10074297;23;20023;-74
2022/08/06 12:16:53;;;;;;;1999.90;999.90;;;;;;;27.43;26.43;100060.81;10043073;23;20026;-75
2022/08/06 12:21:00;;;;;;;1999.90;999.90;;;;;;;27.46;26.59;100055.28;10066076;23;20048;-75
2022/08/06 12:25:05;;;;;;;1999.90;999.90;;;;;;;27.52;26.70;100054.91;10071215;23;20105;-75
2022/08/06 12:29:13;;;;;;;1999.90;999.90;;;;;;;27.54;26.14;100052.13;10050626;23;20620;-74
2022/08/06 12:33:18;;;;;;;1999.90;999.90;;;;;;;27.75;26.62;100037.44;10067008;23;20030;-75
2022/08/06 12:37:42;;;;;;;1999.90;999.90;;;;;;;27.92;26.45;100052.34;10073805;23;20022;-75
2022/08/06 12:41:51;;;;;;;1999.90;999.90;;;;;;;27.69;25.18;100032.50;10047694;23;20018;-75
2022/08/06 12:45:57;;;;;;;1999.90;999.90;;;;;;;27.43;25.19;100028.78;10041842;23;20049;-75
2022/08/06 12:50:19;;;;;;;1999.90;999.90;;;;;;;27.62;25.57;100012.47;10049157;23;20256;-74
2022/08/06 12:54:30;;;;;;;1999.90;999.90;;;;;;;27.44;25.32;100013.63;10073463;23;20825;-76
2022/08/06 12:58:36;;;;;;;1999.90;999.90;;;;;;;27.73;25.88;100011.81;10048469;23;20516;-75
2022/08/06 13:02:43;;;;;;;1999.90;999.90;;;;;;;27.94;25.07;100019.25;10067834;23;20315;-74
2022/08/06 13:06:47;;;;;;;1999.90;999.90;;;;;;;27.88;24.55;100021.47;10047049;23;20022;-75
2022/08/06 13:10:55;;;;;;;1999.90;999.90;;;;;;;28.05;24.73;100025.69;10072859;23;20026;-74
2022/08/06 13:14:58;;;;;;;1999.90;999.90;;;;;;;28.04;24.75;100019.50;10046439;23;20105;-74
2022/08/06 13:19:18;;;;;;;1999.90;999.90;;;;;;;27.92;24.48;100006.97;10047117;23;20077;-74
2022/08/06 13:23:35;;;;;;;1999.90;999.90;;;;;;;28.09;24.00;100016.53;10046730;23;20025;-74
2022/08/06 13:27:38;;;;;;;1999.90;999.90;;;;;;;28.19;24.30;100012.28;10045655;23;20466;-75
2022/08/06 13:32:08;;;;;;;1999.90;999.90;;;;;;;28.30;23.75;100017.78;10041584;23;20092;-74
2022/08/06 13:36:31;;;;;;;1999.90;999.90;;;;;;;28.46;23.55;100001.56;10049212;23;20026;-75
2022/08/06 13:40:43;;;;;;;1999.90;999.90;;;;;;;28.48;23.32;100005.84;10023403;23;20033;-75
2022/08/06 13:44:52;;;;;;;1999.90;999.90;;;;;;;28.38;22.76;99994.09;10070303;23;20018;-75
2022/08/06 13:48:57;;;;;;;1999.90;999.90;;;;;;;28.25;22.89;99987.81;10066420;23;20027;-75
2022/08/06 13:53:03;;;;;;;1999.90;999.90;;;;;;;28.49;23.20;99985.31;10071312;23;20061;-75
2022/08/06 13:57:07;;;;;;;1999.90;999.90;;;;;;;28.55;22.63;99980.41;10071733;23;20022;-74
2022/08/06 14:01:13;;;;;;;1999.90;999.90;;;;;;;28.42;23.29;99979.56;10067355;23;20104;-74
2022/08/06 14:05:15;;;;;;;1999.90;999.90;;;;;;;28.40;22.90;99975.28;10045287;23;20019;-74
2022/08/06 14:09:27;;;;;;;1999.90;999.90;;;;;;;28.39;22.41;99974.41;10088019;23;20775;-75
2022/08/06 14:13:41;;;;;;;1999.90;999.90;;;;;;;28.24;22.44;99972.75;10070786;23;20032;-74
2022/08/06 14:17:44;;;;;;;1999.90;999.90;;;;;;;28.21;23.03;99965.81;10041388;23;20064;-74
2022/08/06 14:21:46;;;;;;;1999.90;999.90;;;;;;;28.15;22.20;99962.69;10072143;23;20026;-74
2022/08/06 14:25:49;;;;;;;1999.90;999.90;;;;;;;28.38;22.47;99963.84;10046501;23;20022;-75
2022/08/06 14:30:04;;;;;;;1999.90;999.90;;;;;;;28.44;21.74;99968.75;10068499;23;20022;-74
2022/08/06 14:34:25;;;;;;;1999.90;999.90;;;;;;;28.50;22.09;99958.50;10069965;23;20129;-74
2022/08/06 14:38:40;;;;;;;1999.90;999.90;;;;;;;28.58;22.30;99940.13;10071352;23;20019;-74
2022/08/06 14:47:03;;;;;;;1999.90;999.90;;;;;;;28.67;21.71;99954.63;10042974;23;20030;-75
2022/08/06 14:51:10;;;;;;;1999.90;999.90;;;;;;;28.62;21.70;99955.94;10047482;23;20081;-75
2022/08/06 14:55:14;;;;;;;1999.90;999.90;;;;;;;28.67;21.63;99946.63;10070169;23;20029;-74
2022/08/06 14:59:25;;;;;;;1999.90;999.90;;;;;;;28.70;21.71;99948.22;10046915;23;20030;-74
2022/08/06 15:03:32;;;;;;;1999.90;999.90;;;;;;;28.71;22.10;99948.09;10017205;23;20030;-74
2022/08/06 15:07:34;;;;;;;;;;;;;;;28.50;21.79;99947.78;10045395;23;20129;-74
2022/08/06 15:11:42;;;;;;;1999.90;999.90;;;;;;;28.52;22.65;99931.66;10072574;23;19960;-74
2022/08/06 15:16:01;;;;;;;1999.90;999.90;;;;;;;28.58;22.36;99928.56;10042672;23;20026;-74
2022/08/06 15:20:04;;;;;;;1999.90;999.90;;;;;;;28.65;20.90;99927.16;10073043;23;20141;-74
2022/08/06 15:24:09;;;;;;;1999.90;999.90;;;;;;;28.67;21.25;99919.03;10047730;23;20022;-74
2022/08/06 15:28:13;;;;;;;1999.90;999.90;;;;;;;28.77;21.84;99917.44;10025101;23;20032;-74
2022/08/06 15:32:15;;;;;;;1999.90;999.90;;;;;;;28.88;22.31;99914.84;10069546;23;20026;-74
2022/08/06 15:36:19;;;;;;;1999.90;999.90;;;;;;;28.94;21.90;99922.47;10048935;23;20109;-73
2022/08/06 15:40:21;;;;;;;1999.90;999.90;;;;;;;29.04;21.93;99906.59;10047898;23;20026;-74
2022/08/06 15:44:30;;;;;;;1999.90;999.90;;;;;;;29.03;21.25;99911.09;10047605;23;20021;-74
2022/08/06 15:48:42;;;;;;;1999.90;999.90;;;;;;;29.09;21.06;99909.81;10066462;23;20086;-74
2022/08/06 15:52:47;;;;;;;1999.90;999.90;;;;;;;29.14;20.98;99905.81;10072284;23;20054;-74
2022/08/06 15:56:51;;;;;;;1999.90;999.90;;;;;;;29.11;20.88;99905.19;10049478;23;20120;-75
2022/08/06 16:00:53;;;;;;;1999.90;999.90;;;;;;;28.98;20.93;99899.88;10066946;23;20053;-74
2022/08/06 16:05:08;;;;;;;1999.90;999.90;;;;;;;29.04;21.19;99903.91;10072849;23;20034;-75
2022/08/06 16:09:13;;;;;;;1999.90;999.90;;;;;;;28.91;20.79;99897.78;10072624;23;20779;-74
2022/08/06 16:13:28;;;;;;;1999.90;999.90;;;;;;;29.02;21.24;99895.16;10071694;23;20053;-74
2022/08/06 16:17:29;;;;;;;;;;;;;;;29.05;20.89;99900.28;10044035;23;20664;-74
2022/08/06 16:21:50;;;;;;;1999.90;999.90;;;;;;;29.10;21.22;99892.78;10050708;23;20260;-74
2022/08/06 16:25:52;;;;;;;1999.90;999.90;;;;;;;28.94;21.00;99887.69;10048143;23;20023;-74
2022/08/06 16:30:13;;;;;;;1999.90;999.90;;;;;;;28.56;21.29;99890.41;10068039;23;20485;-74
2022/08/06 16:34:18;;;;;;;1999.90;999.90;;;;;;;27.94;22.57;99892.91;10070599;23;20050;-74
2022/08/06 16:38:31;;;;;;;1999.90;999.90;;;;;;;27.41;23.39;99886.66;10065861;23;20352;-74
2022/08/06 16:42:35;;;;;;;1999.90;999.90;;;;;;;26.91;24.44;99890.75;10072102;23;20053;-73
2022/08/06 16:46:37;;;;;;;1999.90;999.90;;;;;;;26.59;24.24;99884.81;10043263;23;20784;-74
2022/08/06 16:50:40;;;;;;;1999.90;999.90;;;;;;;26.30;23.60;99885.72;10047880;23;20026;-74
2022/08/06 16:54:42;;;;;;;;;;;;;;;26.02;23.64;99892.72;10046656;23;20022;-74
2022/08/06 16:58:44;;;;;;;1999.90;999.90;;;;;;;25.74;23.74;99882.00;10023485;23;19952;-74
2022/08/06 17:02:53;;;;;;;1999.90;999.90;;;;;;;25.47;24.17;99882.63;10044807;23;20096;-74
2022/08/06 17:06:55;;;;;;;1999.90;999.90;;;;;;;25.25;24.84;99884.81;10022282;23;20018;-74
2022/08/06 17:10:57;;;;;;;1999.90;999.90;;;;;;;25.03;24.31;99889.63;10087506;23;20054;-73
2022/08/06 17:15:01;;;;;;;1999.90;999.90;;;;;;;24.86;24.64;99882.56;10071826;23;20118;-74
2022/08/06 17:19:16;;;;;;;1999.90;999.90;;;;;;;24.73;25.25;99882.38;10070816;23;20030;-74
2022/08/06 17:23:20;;;;;;;1999.90;999.90;;;;;;;24.64;25.10;99888.19;10047567;23;20113;-74
2022/08/06 17:27:27;;;;;;;1999.90;999.90;;;;;;;24.47;24.58;99885.59;10049970;23;20034;-74
2022/08/06 17:31:49;;;;;;;1999.90;999.90;;;;;;;24.31;25.18;99883.75;10051603;23;20038;-74
2022/08/06 17:35:59;;;;;;;1999.90;999.90;;;;;;;24.17;25.62;99883.59;10072829;23;20089;-74
2022/08/06 17:40:23;;;;;;;1999.90;999.90;;;;;;;24.08;26.45;99884.09;10071567;23;20053;-74
2022/08/06 17:44:32;;;;;;;1999.90;999.90;;;;;;;23.98;26.60;99890.78;10073237;23;20014;-74
2022/08/06 17:48:36;;;;;;;1999.90;999.90;;;;;;;23.89;27.14;99878.88;10068463;23;20062;-74
2022/08/06 17:52:39;;;;;;;1999.90;999.90;;;;;;;23.80;26.98;99888.13;10044881;23;20519;-74
2022/08/06 17:56:41;;;;;;;1999.90;999.90;;;;;;;23.65;27.56;99888.91;10047239;23;20030;-74
2022/08/06 18:00:45;;;;;;;1999.90;999.90;;;;;;;23.52;27.17;99893.94;10068406;23;20199;-74
2022/08/06 18:04:49;;;;;;;1999.90;999.90;;;;;;;23.44;26.78;99900.53;10048343;23;20407;-74
2022/08/06 18:08:50;;;;;;;1999.90;999.90;;;;;;;23.35;27.36;99904.53;10073874;23;20367;-73
2022/08/06 18:12:57;;;;;;;1999.90;999.90;;;;;;;23.27;27.64;99905.81;10088879;23;20025;-74
2022/08/06 18:17:00;;;;;;;1999.90;999.90;;;;;;;23.16;27.57;99908.97;10068351;23;20035;-74
2022/08/06 18:21:02;;;;;;;1999.90;999.90;;;;;;;23.06;28.08;99907.69;10073108;23;20714;-74
2022/08/06 18:25:28;;;;;;;1999.90;999.90;;;;;;;22.96;28.26;99909.91;10072433;23;20187;-74